sensor_id;sensor_type;location;lat;lon;timestamp;P1;durP1;ratioP1;P2;durP2;ratioP2
43994;SDS011;51687;52.160;5.298;2022-11-20T00:01:19;17.13;;;15.88;;
43994;SDS011;51687;52.160;5.298;2022-11-20T00:03:47;18.67;;;16.23;;
43994;SDS011;51687;52.160;5.298;2022-11-20T00:06:15;18.17;;;16.67;;
43994;SDS011;51687;52.160;5.298;2022-11-20T00:08:43;18.38;;;16.73;;
43994;SDS011;51687;52.160;5.298;2022-11-20T00:11:14;19.90;;;18.13;;
43994;SDS011;51687;52.160;5.298;2022-11-20T00:13:43;18.83;;;17.20;;
43994;SDS011;51687;52.160;5.298;2022-11-20T00:16:13;19.27;;;17.70;;
43994;SDS011;51687;52.160;5.298;2022-11-20T00:18:41;18.92;;;17.33;;
43994;SDS011;51687;52.160;5.298;2022-11-20T00:21:24;18.38;;;16.88;;
43994;SDS011;51687;52.160;5.298;2022-11-20T00:23:53;18.92;;;17.33;;
43994;SDS011;51687;52.160;5.298;2022-11-20T00:26:21;17.83;;;16.20;;
43994;SDS011;51687;52.160;5.298;2022-11-20T00:28:51;17.83;;;16.45;;
43994;SDS011;51687;52.160;5.298;2022-11-20T00:31:22;18.52;;;17.02;;
43994;SDS011;51687;52.160;5.298;2022-11-20T00:33:50;17.73;;;16.33;;
43994;SDS011;51687;52.160;5.298;2022-11-20T00:36:18;18.63;;;16.95;;
43994;SDS011;51687;52.160;5.298;2022-11-20T00:38:53;17.90;;;16.30;;
43994;SDS011;51687;52.160;5.298;2022-11-20T00:41:21;17.48;;;16.13;;
43994;SDS011;51687;52.160;5.298;2022-11-20T00:43:48;17.92;;;16.25;;
43994;SDS011;51687;52.160;5.298;2022-11-20T00:46:16;17.95;;;16.30;;
43994;SDS011;51687;52.160;5.298;2022-11-20T00:48:45;18.33;;;16.75;;
43994;SDS011;51687;52.160;5.298;2022-11-20T00:51:13;18.85;;;17.35;;
43994;SDS011;51687;52.160;5.298;2022-11-20T00:53:41;20.05;;;18.20;;
43994;SDS011;51687;52.160;5.298;2022-11-20T00:56:12;21.73;;;19.70;;
43994;SDS011;51687;52.160;5.298;2022-11-20T00:58:41;25.90;;;23.27;;
43994;SDS011;51687;52.160;5.298;2022-11-20T01:01:10;25.80;;;21.42;;
43994;SDS011;51687;52.160;5.298;2022-11-20T01:03:43;22.90;;;20.70;;
43994;SDS011;51687;52.160;5.298;2022-11-20T01:06:14;22.42;;;20.33;;
43994;SDS011;51687;52.160;5.298;2022-11-20T01:08:53;24.20;;;21.90;;
43994;SDS011;51687;52.160;5.298;2022-11-20T01:11:26;25.10;;;22.48;;
43994;SDS011;51687;52.160;5.298;2022-11-20T01:13:57;28.02;;;25.02;;
43994;SDS011;51687;52.160;5.298;2022-11-20T01:16:35;28.55;;;25.50;;
43994;SDS011;51687;52.160;5.298;2022-11-20T01:19:04;31.67;;;28.30;;
43994;SDS011;51687;52.160;5.298;2022-11-20T01:21:33;26.67;;;24.08;;
43994;SDS011;51687;52.160;5.298;2022-11-20T01:24:02;26.55;;;23.73;;
43994;SDS011;51687;52.160;5.298;2022-11-20T01:26:31;24.83;;;22.58;;
43994;SDS011;51687;52.160;5.298;2022-11-20T01:28:59;24.40;;;22.02;;
43994;SDS011;51687;52.160;5.298;2022-11-20T01:31:28;24.65;;;22.42;;
43994;SDS011;51687;52.160;5.298;2022-11-20T01:33:57;22.33;;;20.27;;
43994;SDS011;51687;52.160;5.298;2022-11-20T01:36:27;21.90;;;20.00;;
43994;SDS011;51687;52.160;5.298;2022-11-20T01:38:56;21.25;;;19.55;;
43994;SDS011;51687;52.160;5.298;2022-11-20T01:41:25;20.15;;;18.55;;
43994;SDS011;51687;52.160;5.298;2022-11-20T01:44:12;20.58;;;18.70;;
43994;SDS011;51687;52.160;5.298;2022-11-20T01:47:15;21.98;;;19.70;;
43994;SDS011;51687;52.160;5.298;2022-11-20T01:49:39;22.20;;;20.00;;
43994;SDS011;51687;52.160;5.298;2022-11-20T01:52:13;20.92;;;19.08;;
43994;SDS011;51687;52.160;5.298;2022-11-20T01:54:55;22.35;;;20.33;;
43994;SDS011;51687;52.160;5.298;2022-11-20T01:57:27;20.35;;;18.63;;
43994;SDS011;51687;52.160;5.298;2022-11-20T02:00:06;21.20;;;19.35;;
43994;SDS011;51687;52.160;5.298;2022-11-20T02:02:36;19.83;;;18.10;;
43994;SDS011;51687;52.160;5.298;2022-11-20T02:05:07;20.55;;;18.60;;
43994;SDS011;51687;52.160;5.298;2022-11-20T02:07:40;19.65;;;18.10;;
43994;SDS011;51687;52.160;5.298;2022-11-20T02:12:35;17.23;;;15.82;;
43994;SDS011;51687;52.160;5.298;2022-11-20T02:15:21;16.23;;;14.73;;
43994;SDS011;51687;52.160;5.298;2022-11-20T02:17:55;17.13;;;15.73;;
43994;SDS011;51687;52.160;5.298;2022-11-20T02:20:21;17.00;;;15.60;;
43994;SDS011;51687;52.160;5.298;2022-11-20T02:22:50;16.05;;;14.75;;
43994;SDS011;51687;52.160;5.298;2022-11-20T02:25:38;15.45;;;14.15;;
43994;SDS011;51687;52.160;5.298;2022-11-20T02:28:07;15.57;;;14.38;;
43994;SDS011;51687;52.160;5.298;2022-11-20T02:30:34;15.93;;;14.65;;
43994;SDS011;51687;52.160;5.298;2022-11-20T02:33:00;14.65;;;13.45;;
43994;SDS011;51687;52.160;5.298;2022-11-20T02:37:54;14.85;;;13.45;;
43994;SDS011;51687;52.160;5.298;2022-11-20T02:40:23;15.05;;;13.95;;
43994;SDS011;51687;52.160;5.298;2022-11-20T02:42:54;15.27;;;14.05;;
43994;SDS011;51687;52.160;5.298;2022-11-20T02:45:22;16.02;;;14.65;;
43994;SDS011;51687;52.160;5.298;2022-11-20T02:47:49;13.90;;;12.80;;
43994;SDS011;51687;52.160;5.298;2022-11-20T02:50:16;15.75;;;14.40;;
43994;SDS011;51687;52.160;5.298;2022-11-20T02:52:43;15.05;;;13.82;;
43994;SDS011;51687;52.160;5.298;2022-11-20T02:55:10;14.70;;;13.50;;
43994;SDS011;51687;52.160;5.298;2022-11-20T02:57:37;14.90;;;13.80;;
43994;SDS011;51687;52.160;5.298;2022-11-20T03:00:04;15.35;;;13.77;;
43994;SDS011;51687;52.160;5.298;2022-11-20T03:02:33;15.05;;;13.88;;
43994;SDS011;51687;52.160;5.298;2022-11-20T03:04:59;15.20;;;14.05;;
43994;SDS011;51687;52.160;5.298;2022-11-20T03:07:26;15.10;;;13.82;;
43994;SDS011;51687;52.160;5.298;2022-11-20T03:09:53;14.52;;;13.43;;
43994;SDS011;51687;52.160;5.298;2022-11-20T03:12:20;15.43;;;14.13;;
43994;SDS011;51687;52.160;5.298;2022-11-20T03:14:46;16.17;;;14.50;;
43994;SDS011;51687;52.160;5.298;2022-11-20T03:17:18;13.82;;;12.82;;
43994;SDS011;51687;52.160;5.298;2022-11-20T03:19:45;14.93;;;13.73;;
43994;SDS011;51687;52.160;5.298;2022-11-20T03:22:11;15.30;;;14.02;;
43994;SDS011;51687;52.160;5.298;2022-11-20T03:24:38;15.52;;;14.32;;
43994;SDS011;51687;52.160;5.298;2022-11-20T03:27:05;16.27;;;14.90;;
43994;SDS011;51687;52.160;5.298;2022-11-20T03:29:32;15.80;;;14.50;;
43994;SDS011;51687;52.160;5.298;2022-11-20T03:31:58;14.85;;;13.65;;
43994;SDS011;51687;52.160;5.298;2022-11-20T03:34:25;14.80;;;13.60;;
43994;SDS011;51687;52.160;5.298;2022-11-20T03:36:52;14.82;;;13.60;;
43994;SDS011;51687;52.160;5.298;2022-11-20T03:39:18;15.73;;;14.50;;
43994;SDS011;51687;52.160;5.298;2022-11-20T03:41:45;14.90;;;13.63;;
43994;SDS011;51687;52.160;5.298;2022-11-20T03:44:12;14.55;;;13.25;;
43994;SDS011;51687;52.160;5.298;2022-11-20T03:46:39;14.73;;;13.52;;
43994;SDS011;51687;52.160;5.298;2022-11-20T03:49:06;16.13;;;14.82;;
43994;SDS011;51687;52.160;5.298;2022-11-20T03:51:33;15.75;;;14.45;;
43994;SDS011;51687;52.160;5.298;2022-11-20T03:54:05;15.15;;;13.57;;
43994;SDS011;51687;52.160;5.298;2022-11-20T03:56:34;14.43;;;13.43;;
43994;SDS011;51687;52.160;5.298;2022-11-20T03:59:04;15.40;;;14.10;;
43994;SDS011;51687;52.160;5.298;2022-11-20T04:01:32;14.95;;;13.68;;
43994;SDS011;51687;52.160;5.298;2022-11-20T04:04:01;14.43;;;13.32;;
43994;SDS011;51687;52.160;5.298;2022-11-20T04:06:33;15.75;;;14.23;;
43994;SDS011;51687;52.160;5.298;2022-11-20T04:09:01;15.32;;;14.02;;
43994;SDS011;51687;52.160;5.298;2022-11-20T04:11:29;15.00;;;13.80;;
43994;SDS011;51687;52.160;5.298;2022-11-20T04:13:58;13.70;;;12.65;;
43994;SDS011;51687;52.160;5.298;2022-11-20T04:16:30;14.32;;;13.15;;
43994;SDS011;51687;52.160;5.298;2022-11-20T04:19:02;14.43;;;13.38;;
43994;SDS011;51687;52.160;5.298;2022-11-20T04:21:30;14.68;;;13.48;;
43994;SDS011;51687;52.160;5.298;2022-11-20T04:23:58;14.57;;;13.27;;
43994;SDS011;51687;52.160;5.298;2022-11-20T04:26:26;15.10;;;13.90;;
43994;SDS011;51687;52.160;5.298;2022-11-20T04:28:56;14.50;;;13.30;;
43994;SDS011;51687;52.160;5.298;2022-11-20T04:31:25;13.30;;;12.30;;
43994;SDS011;51687;52.160;5.298;2022-11-20T04:33:54;14.55;;;13.35;;
43994;SDS011;51687;52.160;5.298;2022-11-20T04:36:25;15.13;;;13.98;;
43994;SDS011;51687;52.160;5.298;2022-11-20T04:38:53;13.40;;;12.40;;
43994;SDS011;51687;52.160;5.298;2022-11-20T04:41:23;13.80;;;12.73;;
43994;SDS011;51687;52.160;5.298;2022-11-20T04:43:52;13.77;;;12.75;;
43994;SDS011;51687;52.160;5.298;2022-11-20T04:46:25;13.82;;;12.50;;
43994;SDS011;51687;52.160;5.298;2022-11-20T04:48:53;13.70;;;12.70;;
43994;SDS011;51687;52.160;5.298;2022-11-20T04:51:20;15.13;;;14.00;;
43994;SDS011;51687;52.160;5.298;2022-11-20T04:53:47;14.02;;;12.98;;
43994;SDS011;51687;52.160;5.298;2022-11-20T04:56:13;14.45;;;13.30;;
43994;SDS011;51687;52.160;5.298;2022-11-20T04:58:40;13.98;;;12.68;;
43994;SDS011;51687;52.160;5.298;2022-11-20T05:01:11;14.25;;;13.15;;
43994;SDS011;51687;52.160;5.298;2022-11-20T05:03:39;13.85;;;12.75;;
43994;SDS011;51687;52.160;5.298;2022-11-20T05:06:08;13.25;;;12.15;;
43994;SDS011;51687;52.160;5.298;2022-11-20T05:08:36;14.40;;;13.13;;
43994;SDS011;51687;52.160;5.298;2022-11-20T05:11:04;13.63;;;12.60;;
43994;SDS011;51687;52.160;5.298;2022-11-20T05:13:32;13.90;;;12.80;;
43994;SDS011;51687;52.160;5.298;2022-11-20T05:16:09;13.93;;;12.82;;
43994;SDS011;51687;52.160;5.298;2022-11-20T05:18:44;13.70;;;12.70;;
43994;SDS011;51687;52.160;5.298;2022-11-20T05:21:12;13.18;;;12.20;;
43994;SDS011;51687;52.160;5.298;2022-11-20T05:23:39;13.90;;;12.90;;
43994;SDS011;51687;52.160;5.298;2022-11-20T05:26:07;13.55;;;12.45;;
43994;SDS011;51687;52.160;5.298;2022-11-20T05:28:38;13.88;;;12.77;;
43994;SDS011;51687;52.160;5.298;2022-11-20T05:31:09;12.88;;;11.80;;
43994;SDS011;51687;52.160;5.298;2022-11-20T05:33:39;13.43;;;12.43;;
43994;SDS011;51687;52.160;5.298;2022-11-20T05:36:07;13.50;;;11.95;;
43994;SDS011;51687;52.160;5.298;2022-11-20T05:38:35;13.40;;;12.32;;
43994;SDS011;51687;52.160;5.298;2022-11-20T05:43:35;13.45;;;12.45;;
43994;SDS011;51687;52.160;5.298;2022-11-20T05:46:03;13.55;;;12.45;;
43994;SDS011;51687;52.160;5.298;2022-11-20T05:48:32;12.35;;;11.45;;
43994;SDS011;51687;52.160;5.298;2022-11-20T05:51:00;13.93;;;12.82;;
43994;SDS011;51687;52.160;5.298;2022-11-20T05:53:28;13.77;;;12.68;;
43994;SDS011;51687;52.160;5.298;2022-11-20T05:56:01;12.80;;;11.75;;
43994;SDS011;51687;52.160;5.298;2022-11-20T05:58:30;12.80;;;11.80;;
43994;SDS011;51687;52.160;5.298;2022-11-20T06:01:08;13.93;;;12.65;;
43994;SDS011;51687;52.160;5.298;2022-11-20T06:03:37;12.52;;;11.52;;
43994;SDS011;51687;52.160;5.298;2022-11-20T06:06:05;13.52;;;12.52;;
43994;SDS011;51687;52.160;5.298;2022-11-20T06:08:32;12.95;;;11.98;;
43994;SDS011;51687;52.160;5.298;2022-11-20T06:11:04;13.52;;;12.52;;
43994;SDS011;51687;52.160;5.298;2022-11-20T06:13:32;13.23;;;12.23;;
43994;SDS011;51687;52.160;5.298;2022-11-20T06:16:02;12.38;;;11.45;;
43994;SDS011;51687;52.160;5.298;2022-11-20T06:18:29;13.13;;;12.13;;
43994;SDS011;51687;52.160;5.298;2022-11-20T06:21:06;12.65;;;11.68;;
43994;SDS011;51687;52.160;5.298;2022-11-20T06:23:38;13.82;;;12.63;;
43994;SDS011;51687;52.160;5.298;2022-11-20T06:26:07;13.45;;;12.35;;
43994;SDS011;51687;52.160;5.298;2022-11-20T06:31:04;13.25;;;12.05;;
43994;SDS011;51687;52.160;5.298;2022-11-20T06:33:32;14.13;;;13.02;;
43994;SDS011;51687;52.160;5.298;2022-11-20T06:36:02;12.45;;;11.45;;
43994;SDS011;51687;52.160;5.298;2022-11-20T06:38:36;12.95;;;11.95;;
43994;SDS011;51687;52.160;5.298;2022-11-20T06:41:03;12.70;;;11.77;;
43994;SDS011;51687;52.160;5.298;2022-11-20T06:43:33;13.82;;;12.73;;
43994;SDS011;51687;52.160;5.298;2022-11-20T06:46:00;14.60;;;12.90;;
43994;SDS011;51687;52.160;5.298;2022-11-20T06:48:27;19.90;;;18.40;;
43994;SDS011;51687;52.160;5.298;2022-11-20T06:50:55;21.23;;;19.43;;
43994;SDS011;51687;52.160;5.298;2022-11-20T06:53:22;21.05;;;19.45;;
43994;SDS011;51687;52.160;5.298;2022-11-20T06:55:50;19.45;;;17.83;;
43994;SDS011;51687;52.160;5.298;2022-11-20T06:58:17;16.48;;;15.27;;
43994;SDS011;51687;52.160;5.298;2022-11-20T07:00:44;15.23;;;14.02;;
43994;SDS011;51687;52.160;5.298;2022-11-20T07:03:12;14.98;;;13.90;;
43994;SDS011;51687;52.160;5.298;2022-11-20T07:05:39;15.05;;;13.75;;
43994;SDS011;51687;52.160;5.298;2022-11-20T07:08:06;14.55;;;13.27;;
43994;SDS011;51687;52.160;5.298;2022-11-20T07:10:33;14.52;;;13.13;;
43994;SDS011;51687;52.160;5.298;2022-11-20T07:13:00;14.75;;;13.38;;
43994;SDS011;51687;52.160;5.298;2022-11-20T07:15:27;14.95;;;13.80;;
43994;SDS011;51687;52.160;5.298;2022-11-20T07:17:53;15.18;;;13.88;;
43994;SDS011;51687;52.160;5.298;2022-11-20T07:20:20;15.32;;;13.88;;
43994;SDS011;51687;52.160;5.298;2022-11-20T07:22:47;15.68;;;14.38;;
43994;SDS011;51687;52.160;5.298;2022-11-20T07:25:20;16.13;;;14.88;;
43994;SDS011;51687;52.160;5.298;2022-11-20T07:27:47;14.77;;;13.63;;
43994;SDS011;51687;52.160;5.298;2022-11-20T07:30:14;17.40;;;15.77;;
43994;SDS011;51687;52.160;5.298;2022-11-20T07:32:42;16.85;;;15.32;;
43994;SDS011;51687;52.160;5.298;2022-11-20T07:35:08;15.93;;;14.68;;
43994;SDS011;51687;52.160;5.298;2022-11-20T07:37:35;16.90;;;15.50;;
43994;SDS011;51687;52.160;5.298;2022-11-20T07:40:02;16.45;;;15.02;;
43994;SDS011;51687;52.160;5.298;2022-11-20T07:42:29;17.85;;;16.45;;
43994;SDS011;51687;52.160;5.298;2022-11-20T07:44:56;16.50;;;15.20;;
43994;SDS011;51687;52.160;5.298;2022-11-20T07:47:23;15.82;;;14.43;;
43994;SDS011;51687;52.160;5.298;2022-11-20T07:49:49;19.00;;;17.02;;
43994;SDS011;51687;52.160;5.298;2022-11-20T07:52:16;17.92;;;16.42;;
43994;SDS011;51687;52.160;5.298;2022-11-20T07:54:43;17.67;;;15.95;;
43994;SDS011;51687;52.160;5.298;2022-11-20T07:57:10;17.75;;;16.20;;
43994;SDS011;51687;52.160;5.298;2022-11-20T07:59:36;18.83;;;17.20;;
43994;SDS011;51687;52.160;5.298;2022-11-20T08:02:05;19.25;;;17.40;;
43994;SDS011;51687;52.160;5.298;2022-11-20T08:04:31;18.55;;;16.73;;
43994;SDS011;51687;52.160;5.298;2022-11-20T08:06:59;18.27;;;16.77;;
43994;SDS011;51687;52.160;5.298;2022-11-20T08:09:26;18.63;;;17.13;;
43994;SDS011;51687;52.160;5.298;2022-11-20T08:11:52;19.23;;;17.55;;
43994;SDS011;51687;52.160;5.298;2022-11-20T08:14:38;19.70;;;17.80;;
43994;SDS011;51687;52.160;5.298;2022-11-20T08:17:05;18.98;;;17.48;;
43994;SDS011;51687;52.160;5.298;2022-11-20T08:19:31;20.27;;;18.48;;
43994;SDS011;51687;52.160;5.298;2022-11-20T08:21:58;22.27;;;20.23;;
43994;SDS011;51687;52.160;5.298;2022-11-20T08:24:25;21.77;;;19.98;;
43994;SDS011;51687;52.160;5.298;2022-11-20T08:26:52;23.02;;;20.83;;
43994;SDS011;51687;52.160;5.298;2022-11-20T08:29:19;23.38;;;21.23;;
43994;SDS011;51687;52.160;5.298;2022-11-20T08:31:46;24.63;;;22.23;;
43994;SDS011;51687;52.160;5.298;2022-11-20T08:34:14;23.00;;;20.90;;
43994;SDS011;51687;52.160;5.298;2022-11-20T08:36:44;23.90;;;21.63;;
43994;SDS011;51687;52.160;5.298;2022-11-20T08:39:11;23.10;;;21.02;;
43994;SDS011;51687;52.160;5.298;2022-11-20T08:41:38;21.85;;;19.95;;
43994;SDS011;51687;52.160;5.298;2022-11-20T08:44:06;23.10;;;20.35;;
43994;SDS011;51687;52.160;5.298;2022-11-20T08:49:04;22.95;;;21.08;;
43994;SDS011;51687;52.160;5.298;2022-11-20T08:51:32;23.38;;;21.15;;
43994;SDS011;51687;52.160;5.298;2022-11-20T08:54:00;22.08;;;19.92;;
43994;SDS011;51687;52.160;5.298;2022-11-20T08:56:26;23.60;;;21.35;;
43994;SDS011;51687;52.160;5.298;2022-11-20T08:58:54;23.80;;;21.58;;
43994;SDS011;51687;52.160;5.298;2022-11-20T09:01:41;24.08;;;21.85;;
43994;SDS011;51687;52.160;5.298;2022-11-20T09:04:08;24.17;;;22.17;;
43994;SDS011;51687;52.160;5.298;2022-11-20T09:06:34;24.90;;;22.70;;
43994;SDS011;51687;52.160;5.298;2022-11-20T09:09:01;24.80;;;22.48;;
43994;SDS011;51687;52.160;5.298;2022-11-20T09:11:32;23.48;;;21.10;;
43994;SDS011;51687;52.160;5.298;2022-11-20T09:14:00;23.08;;;20.98;;
43994;SDS011;51687;52.160;5.298;2022-11-20T09:16:29;22.55;;;20.52;;
43994;SDS011;51687;52.160;5.298;2022-11-20T09:18:55;22.77;;;20.67;;
43994;SDS011;51687;52.160;5.298;2022-11-20T09:21:42;21.77;;;19.85;;
43994;SDS011;51687;52.160;5.298;2022-11-20T09:24:09;22.60;;;20.60;;
43994;SDS011;51687;52.160;5.298;2022-11-20T09:26:36;23.77;;;21.55;;
43994;SDS011;51687;52.160;5.298;2022-11-20T09:29:03;23.05;;;20.95;;
43994;SDS011;51687;52.160;5.298;2022-11-20T09:31:29;22.60;;;20.70;;
43994;SDS011;51687;52.160;5.298;2022-11-20T09:33:56;22.98;;;20.80;;
43994;SDS011;51687;52.160;5.298;2022-11-20T09:36:23;22.17;;;20.13;;
43994;SDS011;51687;52.160;5.298;2022-11-20T09:38:50;22.25;;;20.38;;
43994;SDS011;51687;52.160;5.298;2022-11-20T09:44:05;23.73;;;21.67;;
43994;SDS011;51687;52.160;5.298;2022-11-20T09:54:54;25.17;;;22.52;;
43994;SDS011;51687;52.160;5.298;2022-11-20T09:57:22;23.90;;;21.70;;
43994;SDS011;51687;52.160;5.298;2022-11-20T10:00:05;24.83;;;22.25;;
43994;SDS011;51687;52.160;5.298;2022-11-20T10:05:22;25.00;;;22.48;;
43994;SDS011;51687;52.160;5.298;2022-11-20T10:13:35;27.23;;;23.02;;
43994;SDS011;51687;52.160;5.298;2022-11-20T10:16:33;24.85;;;22.25;;
43994;SDS011;51687;52.160;5.298;2022-11-20T10:25:00;24.63;;;22.35;;
43994;SDS011;51687;52.160;5.298;2022-11-20T10:27:47;25.88;;;23.25;;
43994;SDS011;51687;52.160;5.298;2022-11-20T10:30:36;27.67;;;23.88;;
43994;SDS011;51687;52.160;5.298;2022-11-20T10:33:08;26.98;;;24.33;;
43994;SDS011;51687;52.160;5.298;2022-11-20T10:36:04;27.20;;;24.35;;
43994;SDS011;51687;52.160;5.298;2022-11-20T10:38:48;29.23;;;26.33;;
43994;SDS011;51687;52.160;5.298;2022-11-20T10:41:30;30.20;;;26.45;;
43994;SDS011;51687;52.160;5.298;2022-11-20T10:44:09;28.77;;;25.80;;
43994;SDS011;51687;52.160;5.298;2022-11-20T10:47:14;33.17;;;26.67;;
43994;SDS011;51687;52.160;5.298;2022-11-20T10:49:45;32.60;;;28.67;;
43994;SDS011;51687;52.160;5.298;2022-11-20T10:57:58;31.83;;;27.13;;
43994;SDS011;51687;52.160;5.298;2022-11-20T11:00:40;36.05;;;29.17;;
43994;SDS011;51687;52.160;5.298;2022-11-20T11:03:20;32.88;;;27.73;;
43994;SDS011;51687;52.160;5.298;2022-11-20T11:05:59;36.40;;;30.65;;
43994;SDS011;51687;52.160;5.298;2022-11-20T11:08:32;37.33;;;29.20;;
43994;SDS011;51687;52.160;5.298;2022-11-20T11:11:18;36.03;;;29.85;;
43994;SDS011;51687;52.160;5.298;2022-11-20T11:13:52;40.17;;;30.33;;
43994;SDS011;51687;52.160;5.298;2022-11-20T11:16:23;43.00;;;32.38;;
43994;SDS011;51687;52.160;5.298;2022-11-20T11:18:51;44.50;;;32.55;;
43994;SDS011;51687;52.160;5.298;2022-11-20T11:21:29;33.50;;;29.75;;
43994;SDS011;51687;52.160;5.298;2022-11-20T11:23:57;34.33;;;30.63;;
43994;SDS011;51687;52.160;5.298;2022-11-20T11:26:59;32.97;;;28.60;;
43994;SDS011;51687;52.160;5.298;2022-11-20T11:29:38;37.72;;;32.35;;
43994;SDS011;51687;52.160;5.298;2022-11-20T11:32:08;39.78;;;33.63;;
43994;SDS011;51687;52.160;5.298;2022-11-20T11:34:42;35.28;;;30.92;;
43994;SDS011;51687;52.160;5.298;2022-11-20T11:37:18;41.97;;;31.23;;
43994;SDS011;51687;52.160;5.298;2022-11-20T11:39:50;38.08;;;31.50;;
43994;SDS011;51687;52.160;5.298;2022-11-20T11:42:43;43.47;;;34.05;;
43994;SDS011;51687;52.160;5.298;2022-11-20T11:45:14;44.70;;;33.17;;
43994;SDS011;51687;52.160;5.298;2022-11-20T11:52:59;56.95;;;38.83;;
43994;SDS011;51687;52.160;5.298;2022-11-20T11:55:39;49.00;;;37.63;;
43994;SDS011;51687;52.160;5.298;2022-11-20T12:01:04;50.55;;;36.97;;
43994;SDS011;51687;52.160;5.298;2022-11-20T12:07:00;42.75;;;32.92;;
43994;SDS011;51687;52.160;5.298;2022-11-20T12:09:53;38.60;;;32.72;;
43994;SDS011;51687;52.160;5.298;2022-11-20T12:12:24;41.67;;;33.35;;
43994;SDS011;51687;52.160;5.298;2022-11-20T12:14:56;50.33;;;35.30;;
43994;SDS011;51687;52.160;5.298;2022-11-20T12:17:24;45.72;;;33.72;;
43994;SDS011;51687;52.160;5.298;2022-11-20T12:19:51;45.17;;;34.78;;
43994;SDS011;51687;52.160;5.298;2022-11-20T12:22:33;46.33;;;36.72;;
43994;SDS011;51687;52.160;5.298;2022-11-20T12:25:12;46.28;;;35.72;;
43994;SDS011;51687;52.160;5.298;2022-11-20T12:27:53;43.38;;;34.75;;
43994;SDS011;51687;52.160;5.298;2022-11-20T12:30:31;44.90;;;34.00;;
43994;SDS011;51687;52.160;5.298;2022-11-20T12:45:05;52.00;;;37.25;;
43994;SDS011;51687;52.160;5.298;2022-11-20T13:02:03;44.13;;;34.38;;
43994;SDS011;51687;52.160;5.298;2022-11-20T13:04:58;44.67;;;35.42;;
43994;SDS011;51687;52.160;5.298;2022-11-20T13:07:37;43.22;;;32.40;;
43994;SDS011;51687;52.160;5.298;2022-11-20T13:10:05;42.30;;;33.42;;
43994;SDS011;51687;52.160;5.298;2022-11-20T13:12:44;43.60;;;35.40;;
43994;SDS011;51687;52.160;5.298;2022-11-20T13:15:22;35.30;;;30.55;;
43994;SDS011;51687;52.160;5.298;2022-11-20T13:17:59;36.30;;;31.67;;
43994;SDS011;51687;52.160;5.298;2022-11-20T13:20:27;32.08;;;28.60;;
43994;SDS011;51687;52.160;5.298;2022-11-20T13:22:58;30.90;;;27.42;;
43994;SDS011;51687;52.160;5.298;2022-11-20T13:25:43;37.13;;;29.33;;
43994;SDS011;51687;52.160;5.298;2022-11-20T13:30:48;27.92;;;24.95;;
43994;SDS011;51687;52.160;5.298;2022-11-20T13:35:57;38.75;;;30.20;;
43994;SDS011;51687;52.160;5.298;2022-11-20T13:38:39;40.35;;;33.80;;
43994;SDS011;51687;52.160;5.298;2022-11-20T13:41:10;38.70;;;34.58;;
43994;SDS011;51687;52.160;5.298;2022-11-20T13:44:13;39.33;;;33.22;;
43994;SDS011;51687;52.160;5.298;2022-11-20T13:46:48;36.63;;;31.77;;
43994;SDS011;51687;52.160;5.298;2022-11-20T13:49:17;34.35;;;30.95;;
43994;SDS011;51687;52.160;5.298;2022-11-20T13:51:50;33.10;;;29.60;;
43994;SDS011;51687;52.160;5.298;2022-11-20T13:59:59;37.63;;;30.13;;
43994;SDS011;51687;52.160;5.298;2022-11-20T14:05:03;32.35;;;28.33;;
43994;SDS011;51687;52.160;5.298;2022-11-20T14:07:41;32.42;;;28.98;;
43994;SDS011;51687;52.160;5.298;2022-11-20T14:10:28;35.50;;;31.58;;
43994;SDS011;51687;52.160;5.298;2022-11-20T14:12:58;34.03;;;30.35;;
43994;SDS011;51687;52.160;5.298;2022-11-20T14:17:59;32.05;;;28.70;;
43994;SDS011;51687;52.160;5.298;2022-11-20T14:20:37;37.78;;;30.77;;
43994;SDS011;51687;52.160;5.298;2022-11-20T14:23:05;35.47;;;30.30;;
43994;SDS011;51687;52.160;5.298;2022-11-20T14:25:36;32.00;;;28.67;;
43994;SDS011;51687;52.160;5.298;2022-11-20T14:28:11;34.15;;;28.05;;
43994;SDS011;51687;52.160;5.298;2022-11-20T14:30:52;31.80;;;28.15;;
43994;SDS011;51687;52.160;5.298;2022-11-20T14:33:19;32.20;;;28.52;;
43994;SDS011;51687;52.160;5.298;2022-11-20T14:35:54;33.30;;;27.20;;
43994;SDS011;51687;52.160;5.298;2022-11-20T14:38:27;35.75;;;31.98;;
43994;SDS011;51687;52.160;5.298;2022-11-20T14:41:05;49.38;;;37.05;;
43994;SDS011;51687;52.160;5.298;2022-11-20T14:46:02;42.92;;;33.42;;
43994;SDS011;51687;52.160;5.298;2022-11-20T14:48:40;47.15;;;33.83;;
43994;SDS011;51687;52.160;5.298;2022-11-20T14:51:10;46.40;;;36.53;;
43994;SDS011;51687;52.160;5.298;2022-11-20T14:53:38;48.88;;;38.58;;
43994;SDS011;51687;52.160;5.298;2022-11-20T14:56:05;47.35;;;35.63;;
43994;SDS011;51687;52.160;5.298;2022-11-20T14:58:33;38.30;;;31.83;;
43994;SDS011;51687;52.160;5.298;2022-11-20T15:01:01;41.70;;;33.35;;
43994;SDS011;51687;52.160;5.298;2022-11-20T15:03:34;49.22;;;35.45;;
43994;SDS011;51687;52.160;5.298;2022-11-20T15:06:03;53.03;;;36.75;;
43994;SDS011;51687;52.160;5.298;2022-11-20T15:08:31;46.00;;;35.28;;
43994;SDS011;51687;52.160;5.298;2022-11-20T15:10:58;46.85;;;35.05;;
43994;SDS011;51687;52.160;5.298;2022-11-20T15:13:26;37.40;;;31.27;;
43994;SDS011;51687;52.160;5.298;2022-11-20T15:15:59;36.83;;;30.45;;
43994;SDS011;51687;52.160;5.298;2022-11-20T15:20:57;36.35;;;29.73;;
43994;SDS011;51687;52.160;5.298;2022-11-20T15:23:26;35.75;;;28.63;;
43994;SDS011;51687;52.160;5.298;2022-11-20T15:25:54;36.25;;;29.65;;
43994;SDS011;51687;52.160;5.298;2022-11-20T15:28:30;34.95;;;30.77;;
43994;SDS011;51687;52.160;5.298;2022-11-20T15:30:59;40.15;;;32.58;;
43994;SDS011;51687;52.160;5.298;2022-11-20T15:33:26;43.60;;;32.40;;
43994;SDS011;51687;52.160;5.298;2022-11-20T15:35:54;35.13;;;29.23;;
43994;SDS011;51687;52.160;5.298;2022-11-20T15:38:21;41.05;;;30.40;;
43994;SDS011;51687;52.160;5.298;2022-11-20T15:40:48;34.92;;;29.23;;
43994;SDS011;51687;52.160;5.298;2022-11-20T15:43:15;30.55;;;27.50;;
43994;SDS011;51687;52.160;5.298;2022-11-20T15:45:49;36.72;;;29.80;;
43994;SDS011;51687;52.160;5.298;2022-11-20T15:48:20;31.83;;;28.50;;
43994;SDS011;51687;52.160;5.298;2022-11-20T15:50:59;42.22;;;32.05;;
43994;SDS011;51687;52.160;5.298;2022-11-20T15:53:40;43.28;;;32.70;;
43994;SDS011;51687;52.160;5.298;2022-11-20T15:56:11;40.70;;;35.63;;
43994;SDS011;51687;52.160;5.298;2022-11-20T15:58:39;26.98;;;24.58;;
43994;SDS011;51687;52.160;5.298;2022-11-20T16:01:13;30.03;;;26.83;;
43994;SDS011;51687;52.160;5.298;2022-11-20T16:03:42;33.95;;;28.58;;
43994;SDS011;51687;52.160;5.298;2022-11-20T16:06:09;38.67;;;30.20;;
43994;SDS011;51687;52.160;5.298;2022-11-20T16:08:35;29.52;;;26.60;;
43994;SDS011;51687;52.160;5.298;2022-11-20T16:11:02;29.70;;;26.65;;
43994;SDS011;51687;52.160;5.298;2022-11-20T16:13:30;30.33;;;27.27;;
43994;SDS011;51687;52.160;5.298;2022-11-20T16:16:21;28.40;;;25.50;;
43994;SDS011;51687;52.160;5.298;2022-11-20T16:18:54;27.10;;;24.33;;
43994;SDS011;51687;52.160;5.298;2022-11-20T16:21:22;27.52;;;24.75;;
43994;SDS011;51687;52.160;5.298;2022-11-20T16:24:03;27.77;;;24.90;;
43994;SDS011;51687;52.160;5.298;2022-11-20T16:26:33;30.33;;;27.00;;